Steptoe, WA (99174)

2:29 PM PST on February 11, 2016 (GMT -0800)
St. John Area | | Change Station
CLOSE
Current Station
Personal Weather Station
Location: Thornton, WA
Elevation: 2382 ft
Nearby Weather Stations

Elev 2382 ft 47.07 °N, 117.43 °W | Updated 28 minutes ago

Overcast
Overcast
52.1 °F
Feels Like 52.1 °F
N
9.0
Wind Variable Wind from NE
Gusts 10.0 mph

Today
High -- | Low -- °F
--% Chance of Precip.
Yesterday
High -- | Low -- °F
Precip. -- in
Pressure 30.28 in
Visibility 10.0 miles
Clouds Few 6000 ft
Overcast 7500 ft
Dew Point 44 °F
Humidity 75%
Rainfall 0.00 in
Snow Depth Not available.
7:00 AM 5:07 PM
Waxing Crescent, 15% visible
METAR KPUW 112153Z AUTO 11005KT 10SM -RA FEW060 OVC075 10/03 A3025 RMK AO2 RAB37 SLP252 P0000 T01000028
Pressure 30.28 in
Visibility 10.0 miles
Clouds Few 6000 ft
Overcast 7500 ft
Dew Point 44 °F
Humidity 75%
Rainfall 0.00 in
Snow Depth Not available.
7:00 AM 5:07 PM
Waxing Crescent, 15% visible
METAR KPUW 112153Z AUTO 11005KT 10SM -RA FEW060 OVC075 10/03 A3025 RMK AO2 RAB37 SLP252 P0000 T01000028

10-Day Weather Forecast

Almanac

Astronomy

Feb. 11, 2016 Rise Set
Actual Time
Civil Twilight
Nautical Twilight
Astronomical Twilight
Moon
Length of Visible Light
Length of Day
Tomorrow will be .
, % of the Moon is Illuminated

Today's Extremes

State Highs State Lows

Community

WunderPhotos

Upload Photos

1,892,172 photos uploaded!

WunderBlog® & News

Nearby

Air Quality

  Air Quality AQ Index Pollutant
Not available.

Snow Depth

Station Depth Elevation

Earthquake Activity

City Distance Mag. Time & Date
Minimum magnitude displayed is 2.5.

Coastal Water Temperatures

Place Temperature

Stations

Nearby Weather Stations

Station Location Temp. Windchill Dew Point Humidity Wind Precip. Elev Updated Type
                   

Watches & Warnings

There are currently no watches in effect.